createdAt,value
2022-10-02T00:00:03.911Z,87
2022-10-02T00:01:00.863Z,87
2022-10-02T00:02:00.924Z,87
2022-10-02T00:03:00.884Z,87
2022-10-02T00:04:01.026Z,87
2022-10-02T00:05:03.740Z,87
2022-10-02T00:06:03.056Z,87
2022-10-02T00:07:00.897Z,87
2022-10-02T00:08:00.959Z,87
2022-10-02T00:09:00.908Z,87
2022-10-02T00:10:04.020Z,87
2022-10-02T00:11:00.916Z,87
2022-10-02T00:12:01.192Z,87
2022-10-02T00:13:00.935Z,87
2022-10-02T00:14:03.084Z,87
2022-10-02T00:15:03.684Z,87
2022-10-02T00:16:01.117Z,87
2022-10-02T00:17:00.972Z,87
2022-10-02T00:18:01.040Z,87
2022-10-02T00:19:00.973Z,87
2022-10-02T00:20:04.028Z,87
2022-10-02T00:21:01.000Z,87
2022-10-02T00:22:01.087Z,87
2022-10-02T00:23:00.992Z,87
2022-10-02T00:24:01.087Z,86
2022-10-02T00:25:04.020Z,86
2022-10-02T00:26:01.076Z,86
2022-10-02T00:27:01.027Z,86
2022-10-02T00:28:03.210Z,86
2022-10-02T00:29:01.025Z,86
2022-10-02T00:30:04.288Z,86
2022-10-02T00:31:01.066Z,86
2022-10-02T00:32:03.187Z,86
2022-10-02T00:33:01.072Z,86
2022-10-02T00:34:01.183Z,86
2022-10-02T00:35:03.846Z,86
2022-10-02T00:36:01.176Z,86
2022-10-02T00:37:01.109Z,86
2022-10-02T00:38:01.182Z,86
2022-10-02T00:39:01.130Z,86
2022-10-02T00:40:04.416Z,86
2022-10-02T00:41:01.136Z,86
2022-10-02T00:42:01.219Z,86
2022-10-02T00:43:01.151Z,86
2022-10-02T00:44:01.245Z,86
2022-10-02T00:45:04.798Z,86
2022-10-02T00:46:03.203Z,86
2022-10-02T00:47:00.183Z,86
2022-10-02T00:48:00.267Z,86
2022-10-02T00:49:00.197Z,86
2022-10-02T00:50:03.096Z,87
2022-10-02T00:51:00.226Z,87
2022-10-02T00:52:00.304Z,87
2022-10-02T00:53:00.248Z,87
2022-10-02T00:54:00.290Z,87
2022-10-02T00:55:03.130Z,87
2022-10-02T00:56:00.325Z,87
2022-10-02T00:57:00.254Z,87
2022-10-02T00:58:00.342Z,87
2022-10-02T00:59:00.272Z,87
2022-10-02T01:00:03.585Z,87
2022-10-02T01:01:00.343Z,87
2022-10-02T01:02:00.453Z,87
2022-10-02T01:03:01.754Z,87
2022-10-02T01:04:03.114Z,87
2022-10-02T01:05:03.072Z,86
2022-10-02T01:06:00.394Z,86
2022-10-02T01:07:00.325Z,86
2022-10-02T01:08:00.387Z,86
2022-10-02T01:09:00.369Z,86
2022-10-02T01:10:03.466Z,86
2022-10-02T01:11:00.350Z,86
2022-10-02T01:12:00.430Z,86
2022-10-02T01:13:00.375Z,86
2022-10-02T01:14:00.431Z,86
2022-10-02T01:15:03.232Z,86
2022-10-02T01:16:00.532Z,86
2022-10-02T01:17:00.391Z,86
2022-10-02T01:18:03.160Z,86
2022-10-02T01:19:00.400Z,86
2022-10-02T01:20:03.522Z,86
2022-10-02T01:21:00.463Z,86
2022-10-02T01:22:03.102Z,86
2022-10-02T01:23:00.433Z,86
2022-10-02T01:24:00.520Z,86
2022-10-02T01:25:03.392Z,86
2022-10-02T01:26:03.155Z,86
2022-10-02T01:27:00.457Z,86
2022-10-02T01:28:00.569Z,86
2022-10-02T01:29:00.481Z,86
2022-10-02T01:30:03.611Z,86
2022-10-02T01:31:00.486Z,86
2022-10-02T01:32:00.716Z,86
2022-10-02T01:33:00.497Z,86
2022-10-02T01:34:03.075Z,86
2022-10-02T01:35:03.383Z,86
2022-10-02T01:36:00.586Z,86
2022-10-02T01:37:00.505Z,86
2022-10-02T01:38:00.599Z,86
2022-10-02T01:39:00.531Z,86
2022-10-02T01:40:04.101Z,86
2022-10-02T01:41:00.542Z,86
2022-10-02T01:42:00.620Z,86
2022-10-02T01:43:00.550Z,86
2022-10-02T01:44:00.638Z,86
2022-10-02T01:45:03.531Z,86
2022-10-02T01:46:00.673Z,86
2022-10-02T01:47:00.580Z,86
2022-10-02T01:48:03.117Z,86
2022-10-02T01:49:00.605Z,86
2022-10-02T01:50:04.115Z,86
2022-10-02T01:51:00.624Z,86
2022-10-02T01:52:03.080Z,86
2022-10-02T01:53:00.631Z,86
2022-10-02T01:54:00.697Z,86
2022-10-02T01:55:03.401Z,86
2022-10-02T01:56:03.209Z,86
2022-10-02T01:57:00.673Z,86
2022-10-02T01:58:00.761Z,86
2022-10-02T01:59:00.681Z,86
2022-10-02T02:00:04.021Z,86
2022-10-02T02:01:00.788Z,86
2022-10-02T02:02:00.852Z,86
2022-10-02T02:03:00.735Z,86
2022-10-02T02:04:00.838Z,86
2022-10-02T02:05:03.720Z,86
2022-10-02T02:06:03.106Z,86
2022-10-02T02:07:00.763Z,86
2022-10-02T02:08:00.832Z,86
2022-10-02T02:09:02.004Z,86
2022-10-02T02:10:03.912Z,86
2022-10-02T02:11:00.797Z,86
2022-10-02T02:12:00.882Z,86
2022-10-02T02:13:00.963Z,86
2022-10-02T02:14:03.287Z,86
2022-10-02T02:15:03.838Z,86
2022-10-02T02:16:00.933Z,86
2022-10-02T02:17:00.934Z,86
2022-10-02T02:18:00.917Z,86
2022-10-02T02:19:00.870Z,86
2022-10-02T02:20:04.106Z,86
2022-10-02T02:21:00.895Z,86
2022-10-02T02:22:00.946Z,86
2022-10-02T02:23:00.902Z,86
2022-10-02T02:24:00.973Z,86
2022-10-02T02:25:03.899Z,86
2022-10-02T02:26:01.012Z,86
2022-10-02T02:27:00.934Z,86
2022-10-02T02:28:01.097Z,86
2022-10-02T02:29:00.937Z,86
2022-10-02T02:30:04.253Z,86
2022-10-02T02:31:00.963Z,86
2022-10-02T02:32:01.088Z,86
2022-10-02T02:33:00.981Z,86
2022-10-02T02:34:01.048Z,86
2022-10-02T02:35:04.647Z,86
2022-10-02T02:36:01.060Z,86
2022-10-02T02:37:01.006Z,86
2022-10-02T02:38:01.093Z,86
2022-10-02T02:39:01.015Z,86
2022-10-02T02:40:04.128Z,86
2022-10-02T02:41:01.039Z,86
2022-10-02T02:42:01.097Z,86
2022-10-02T02:43:01.046Z,86
2022-10-02T02:44:01.139Z,86
2022-10-02T02:45:04.109Z,86
2022-10-02T02:46:01.189Z,86
2022-10-02T02:47:01.078Z,86
2022-10-02T02:48:01.150Z,86
2022-10-02T02:49:01.096Z,86
2022-10-02T02:50:04.550Z,86
2022-10-02T02:51:01.147Z,86
2022-10-02T02:52:03.088Z,86
2022-10-02T02:53:01.121Z,86
2022-10-02T02:54:01.201Z,86
2022-10-02T02:55:03.950Z,86
2022-10-02T02:56:03.436Z,86
2022-10-02T02:57:01.157Z,86
2022-10-02T02:58:01.222Z,86
2022-10-02T02:59:01.149Z,86
2022-10-02T03:00:04.467Z,86
2022-10-02T03:01:00.282Z,86
2022-10-02T03:02:00.375Z,86
2022-10-02T03:03:00.227Z,86
2022-10-02T03:04:00.288Z,86
2022-10-02T03:05:02.976Z,86
2022-10-02T03:06:03.149Z,87
2022-10-02T03:07:00.239Z,87
2022-10-02T03:08:00.344Z,87
2022-10-02T03:09:00.260Z,87
2022-10-02T03:10:03.332Z,87
2022-10-02T03:11:00.275Z,87
2022-10-02T03:12:00.357Z,87
2022-10-02T03:13:00.291Z,87
2022-10-02T03:14:03.129Z,87
2022-10-02T03:15:03.195Z,87
2022-10-02T03:16:00.440Z,87
2022-10-02T03:17:00.326Z,87
2022-10-02T03:18:00.404Z,87
2022-10-02T03:19:00.327Z,87
2022-10-02T03:20:03.726Z,87
2022-10-02T03:21:00.369Z,87
2022-10-02T03:22:00.466Z,87
2022-10-02T03:23:00.376Z,87
2022-10-02T03:24:00.448Z,87
2022-10-02T03:25:03.236Z,87
2022-10-02T03:26:00.460Z,87
2022-10-02T03:27:00.422Z,87
2022-10-02T03:28:03.133Z,87
2022-10-02T03:29:00.432Z,87
2022-10-02T03:30:05.179Z,87
2022-10-02T03:31:00.418Z,87
2022-10-02T03:32:03.132Z,87
2022-10-02T03:33:00.445Z,87
2022-10-02T03:34:00.508Z,87
2022-10-02T03:35:03.336Z,87
2022-10-02T03:36:03.122Z,87
2022-10-02T03:37:00.461Z,87
2022-10-02T03:38:01.544Z,87
2022-10-02T03:39:23.564Z,87
2022-10-02T03:40:04.907Z,87
2022-10-02T03:41:00.473Z,87
2022-10-02T03:42:00.569Z,87
2022-10-02T03:43:00.516Z,87
2022-10-02T03:44:03.129Z,87
2022-10-02T03:45:03.354Z,87
2022-10-02T03:46:00.698Z,87
2022-10-02T03:47:00.537Z,87
2022-10-02T03:48:03.610Z,87
2022-10-02T03:49:00.559Z,87
2022-10-02T03:50:03.924Z,87
2022-10-02T03:51:00.581Z,87
2022-10-02T03:52:02.978Z,87
2022-10-02T03:53:00.579Z,87
2022-10-02T03:54:00.704Z,87
2022-10-02T03:55:03.401Z,88
2022-10-02T03:56:02.993Z,88
2022-10-02T03:57:00.607Z,88
2022-10-02T03:58:00.677Z,88
2022-10-02T03:59:00.623Z,88
2022-10-02T04:00:04.035Z,88
2022-10-02T04:01:00.638Z,88
2022-10-02T04:02:00.774Z,88
2022-10-02T04:03:00.651Z,88
2022-10-02T04:04:00.753Z,88
2022-10-02T04:05:03.491Z,88
2022-10-02T04:06:02.975Z,88
2022-10-02T04:07:00.686Z,89
2022-10-02T04:08:00.784Z,89
2022-10-02T04:09:00.696Z,89
2022-10-02T04:10:03.973Z,89
2022-10-02T04:11:00.704Z,89
2022-10-02T04:12:00.785Z,89
2022-10-02T04:13:00.703Z,89
2022-10-02T04:14:03.011Z,89
2022-10-02T04:15:03.846Z,89
2022-10-02T04:16:00.850Z,89
2022-10-02T04:17:00.742Z,89
2022-10-02T04:18:00.824Z,89
2022-10-02T04:19:00.747Z,89
2022-10-02T04:20:04.157Z,89
2022-10-02T04:21:00.781Z,89
2022-10-02T04:22:00.859Z,90
2022-10-02T04:23:00.775Z,90
2022-10-02T04:24:00.872Z,90
2022-10-02T04:25:05.497Z,90
2022-10-02T04:26:00.895Z,90
2022-10-02T04:27:00.830Z,90
2022-10-02T04:28:03.015Z,90
2022-10-02T04:29:00.832Z,90
2022-10-02T04:30:03.992Z,90
2022-10-02T04:31:01.052Z,90
2022-10-02T04:32:03.017Z,90
2022-10-02T04:33:00.878Z,90
2022-10-02T04:34:00.936Z,90
2022-10-02T04:35:03.853Z,90
2022-10-02T04:36:03.008Z,90
2022-10-02T04:37:00.890Z,90
2022-10-02T04:38:00.975Z,90
2022-10-02T04:39:00.918Z,90
2022-10-02T04:40:04.174Z,90
2022-10-02T04:41:01.072Z,90
2022-10-02T04:42:01.045Z,90
2022-10-02T04:43:00.934Z,90
2022-10-02T04:44:03.010Z,90
2022-10-02T04:45:03.769Z,90
2022-10-02T04:46:01.091Z,90
2022-10-02T04:47:00.956Z,90
2022-10-02T04:48:03.066Z,90
2022-10-02T04:49:00.986Z,90
2022-10-02T04:50:04.243Z,90
2022-10-02T04:51:01.008Z,90
2022-10-02T04:52:01.086Z,90
2022-10-02T04:53:01.014Z,90
2022-10-02T04:54:01.139Z,90
2022-10-02T04:55:04.004Z,90
2022-10-02T04:56:01.110Z,90
2022-10-02T04:57:01.079Z,90
2022-10-02T04:58:02.978Z,90
2022-10-02T04:59:01.059Z,90
2022-10-02T05:00:04.597Z,90
2022-10-02T05:01:01.093Z,90
2022-10-02T05:02:01.189Z,90
2022-10-02T05:03:01.107Z,90
2022-10-02T05:04:04.181Z,90
2022-10-02T05:05:03.968Z,90
2022-10-02T05:06:03.062Z,90
2022-10-02T05:07:01.102Z,90
2022-10-02T05:08:01.197Z,90
2022-10-02T05:09:01.137Z,90
2022-10-02T05:10:04.527Z,90
2022-10-02T05:11:01.149Z,90
2022-10-02T05:12:01.276Z,90
2022-10-02T05:13:01.151Z,90
2022-10-02T05:14:03.013Z,90
2022-10-02T05:15:04.117Z,90
2022-10-02T05:16:01.261Z,90
2022-10-02T05:17:01.188Z,90
2022-10-02T05:18:01.043Z,90
2022-10-02T05:19:00.211Z,90
2022-10-02T05:20:05.146Z,90
2022-10-02T05:21:00.255Z,90
2022-10-02T05:22:00.899Z,90
2022-10-02T05:23:00.259Z,90
2022-10-02T05:24:00.343Z,90
2022-10-02T05:25:03.158Z,90
2022-10-02T05:26:00.835Z,90
2022-10-02T05:27:00.285Z,90
2022-10-02T05:28:00.442Z,90
2022-10-02T05:29:00.287Z,90
2022-10-02T05:30:04.964Z,90
2022-10-02T05:31:00.372Z,90
2022-10-02T05:32:00.373Z,90
2022-10-02T05:33:00.316Z,90
2022-10-02T05:34:00.884Z,90
2022-10-02T05:35:03.436Z,90
2022-10-02T05:36:00.435Z,90
2022-10-02T05:37:00.341Z,90
2022-10-02T05:38:00.424Z,91
2022-10-02T05:39:00.358Z,91
2022-10-02T05:40:03.509Z,91
2022-10-02T05:41:00.357Z,91
2022-10-02T05:42:00.515Z,91
2022-10-02T05:43:00.380Z,91
2022-10-02T05:44:00.478Z,91
2022-10-02T05:45:03.268Z,91
2022-10-02T05:46:00.836Z,91
2022-10-02T05:47:00.487Z,91
2022-10-02T05:48:03.612Z,91
2022-10-02T05:49:00.431Z,91
2022-10-02T05:50:03.598Z,91
2022-10-02T05:51:00.458Z,91
2022-10-02T05:52:03.017Z,91
2022-10-02T05:53:00.472Z,91
2022-10-02T05:54:00.594Z,91
2022-10-02T05:55:03.463Z,91
2022-10-02T05:56:03.028Z,91
2022-10-02T05:57:00.507Z,91
2022-10-02T05:58:00.554Z,91
2022-10-02T05:59:00.509Z,91
2022-10-02T06:00:04.983Z,91
2022-10-02T06:01:00.616Z,91
2022-10-02T06:02:00.695Z,91
2022-10-02T06:03:00.560Z,91
2022-10-02T06:04:00.622Z,91
2022-10-02T06:05:03.723Z,91
2022-10-02T06:06:03.027Z,91
2022-10-02T06:07:00.584Z,91
2022-10-02T06:08:00.630Z,91
2022-10-02T06:09:00.607Z,91
2022-10-02T06:10:12.933Z,91
2022-10-02T06:11:00.607Z,91
2022-10-02T06:12:00.692Z,91
2022-10-02T06:13:00.631Z,91
2022-10-02T06:14:02.994Z,91
2022-10-02T06:15:05.218Z,91
2022-10-02T06:16:00.816Z,91
2022-10-02T06:17:00.664Z,91
2022-10-02T06:18:00.745Z,91
2022-10-02T06:19:00.673Z,91
2022-10-02T06:20:04.214Z,91
2022-10-02T06:21:00.690Z,91
2022-10-02T06:22:00.956Z,91
2022-10-02T06:23:00.698Z,91
2022-10-02T06:24:00.782Z,91
2022-10-02T06:25:04.010Z,91
2022-10-02T06:26:00.811Z,91
2022-10-02T06:27:00.734Z,91
2022-10-02T06:28:03.122Z,91
2022-10-02T06:29:00.746Z,91
2022-10-02T06:30:04.097Z,91
2022-10-02T06:31:00.789Z,91
2022-10-02T06:32:02.990Z,91
2022-10-02T06:33:00.791Z,91
2022-10-02T06:34:00.877Z,91
2022-10-02T06:35:05.038Z,91
2022-10-02T06:36:00.877Z,91
2022-10-02T06:37:00.819Z,91
2022-10-02T06:38:00.858Z,91
2022-10-02T06:39:00.828Z,91
2022-10-02T06:40:04.260Z,91
2022-10-02T06:41:00.835Z,91
2022-10-02T06:42:00.919Z,91
2022-10-02T06:43:00.860Z,91
2022-10-02T06:44:00.933Z,91
2022-10-02T06:45:03.903Z,91
2022-10-02T06:46:03.186Z,91
2022-10-02T06:47:00.876Z,91
2022-10-02T06:48:00.953Z,91
2022-10-02T06:49:00.882Z,91
2022-10-02T06:50:04.055Z,91
2022-10-02T06:51:00.921Z,91
2022-10-02T06:52:00.996Z,91
2022-10-02T06:53:00.920Z,91
2022-10-02T06:54:01.007Z,91
2022-10-02T06:55:04.108Z,91
2022-10-02T06:56:01.035Z,91
2022-10-02T06:57:00.961Z,91
2022-10-02T06:58:01.059Z,91
2022-10-02T06:59:00.977Z,91
2022-10-02T07:00:05.402Z,91
2022-10-02T07:01:01.093Z,91
2022-10-02T07:02:01.096Z,91
2022-10-02T07:03:01.036Z,91
2022-10-02T07:04:01.113Z,91
2022-10-02T07:05:04.016Z,91
2022-10-02T07:06:03.028Z,91
2022-10-02T07:07:01.036Z,91
2022-10-02T07:08:01.119Z,91
2022-10-02T07:09:01.068Z,91
2022-10-02T07:10:08.063Z,91
2022-10-02T07:11:01.074Z,91
2022-10-02T07:12:01.138Z,91
2022-10-02T07:13:01.086Z,91
2022-10-02T07:14:01.162Z,91
2022-10-02T07:15:07.235Z,91
2022-10-02T07:16:01.258Z,91
2022-10-02T07:17:01.120Z,91
2022-10-02T07:18:01.222Z,91
2022-10-02T07:19:01.118Z,91
2022-10-02T07:20:05.433Z,91
2022-10-02T07:21:01.160Z,91
2022-10-02T07:22:01.414Z,91
2022-10-02T07:23:01.166Z,91
2022-10-02T07:24:02.623Z,91
2022-10-02T07:25:04.287Z,91
2022-10-02T07:26:00.245Z,91
2022-10-02T07:27:00.200Z,91
2022-10-02T07:28:00.357Z,91
2022-10-02T07:29:00.198Z,91
2022-10-02T07:30:04.543Z,91
2022-10-02T07:31:00.233Z,91
2022-10-02T07:32:00.356Z,91
2022-10-02T07:33:00.248Z,91
2022-10-02T07:34:03.042Z,91
2022-10-02T07:35:03.091Z,91
2022-10-02T07:36:00.321Z,91
2022-10-02T07:37:00.273Z,91
2022-10-02T07:38:00.326Z,91
2022-10-02T07:39:00.285Z,91
2022-10-02T07:40:03.543Z,91
2022-10-02T07:41:00.340Z,91
2022-10-02T07:42:00.380Z,91
2022-10-02T07:43:00.308Z,91
2022-10-02T07:44:00.374Z,91
2022-10-02T07:45:03.272Z,91
2022-10-02T07:46:00.451Z,91
2022-10-02T07:47:00.333Z,91
2022-10-02T07:48:00.805Z,91
2022-10-02T07:49:00.355Z,91
2022-10-02T07:50:04.955Z,91
2022-10-02T07:51:00.375Z,91
2022-10-02T07:52:00.835Z,91
2022-10-02T07:53:00.355Z,91
2022-10-02T07:54:00.524Z,91
2022-10-02T07:55:03.334Z,91
2022-10-02T07:56:00.817Z,91
2022-10-02T07:57:00.403Z,91
2022-10-02T07:58:00.500Z,91
2022-10-02T07:59:00.405Z,91
2022-10-02T08:00:05.489Z,91
2022-10-02T08:01:00.436Z,91
2022-10-02T08:02:00.529Z,91
2022-10-02T08:03:00.485Z,91
2022-10-02T08:04:00.543Z,91
2022-10-02T08:05:05.012Z,91
2022-10-02T08:06:00.879Z,91
2022-10-02T08:07:00.471Z,91
2022-10-02T08:08:00.539Z,91
2022-10-02T08:09:00.502Z,91
2022-10-02T08:10:03.536Z,90
2022-10-02T08:11:00.518Z,90
2022-10-02T08:12:00.575Z,90
2022-10-02T08:13:00.513Z,90
2022-10-02T08:14:00.814Z,90
2022-10-02T08:15:03.527Z,90
2022-10-02T08:16:00.694Z,90
2022-10-02T08:17:00.535Z,90
2022-10-02T08:18:16.502Z,90
2022-10-02T08:19:00.558Z,90
2022-10-02T08:20:03.915Z,90
2022-10-02T08:21:00.577Z,90
2022-10-02T08:22:00.935Z,90
2022-10-02T08:23:00.580Z,90
2022-10-02T08:24:00.668Z,90
2022-10-02T08:25:03.520Z,90
2022-10-02T08:26:00.960Z,90
2022-10-02T08:27:00.611Z,90
2022-10-02T08:28:00.794Z,90
2022-10-02T08:29:00.617Z,90
2022-10-02T08:30:05.006Z,90
2022-10-02T08:31:00.634Z,90
2022-10-02T08:32:00.760Z,90
2022-10-02T08:33:00.663Z,90
2022-10-02T08:34:00.921Z,90
2022-10-02T08:35:03.633Z,90
2022-10-02T08:36:00.749Z,90
2022-10-02T08:37:00.662Z,90
2022-10-02T08:38:00.775Z,90
2022-10-02T08:39:00.700Z,90
2022-10-02T08:40:04.090Z,90
2022-10-02T08:41:00.703Z,90
2022-10-02T08:42:00.783Z,90
2022-10-02T08:43:00.718Z,90
2022-10-02T08:44:00.772Z,90
2022-10-02T08:45:04.108Z,89
2022-10-02T08:46:00.964Z,89
2022-10-02T08:47:00.757Z,89
2022-10-02T08:48:00.829Z,89
2022-10-02T08:49:00.760Z,89
2022-10-02T08:50:04.047Z,89
2022-10-02T08:51:00.780Z,89
2022-10-02T08:52:01.050Z,89
2022-10-02T08:53:00.783Z,90
2022-10-02T08:54:00.900Z,90
2022-10-02T08:55:03.793Z,89
2022-10-02T08:56:00.873Z,89
2022-10-02T08:57:00.824Z,89
2022-10-02T08:58:00.911Z,89
2022-10-02T08:59:00.824Z,89
2022-10-02T09:00:13.035Z,89
2022-10-02T09:01:00.891Z,89
2022-10-02T09:02:01.019Z,89
2022-10-02T09:03:00.875Z,89
2022-10-02T09:04:00.974Z,89
2022-10-02T09:05:04.430Z,89
2022-10-02T09:06:00.976Z,89
2022-10-02T09:07:00.890Z,89
2022-10-02T09:08:00.949Z,88
2022-10-02T09:09:00.916Z,88
2022-10-02T09:10:05.739Z,88
2022-10-02T09:11:00.897Z,88
2022-10-02T09:12:01.010Z,88
2022-10-02T09:13:00.930Z,88
2022-10-02T09:14:01.007Z,88
2022-10-02T09:15:04.187Z,88
2022-10-02T09:16:01.070Z,88
2022-10-02T09:17:00.952Z,88
2022-10-02T09:18:01.025Z,88
2022-10-02T09:19:00.962Z,88
2022-10-02T09:20:04.265Z,87
2022-10-02T09:21:00.985Z,87
2022-10-02T09:22:01.091Z,87
2022-10-02T09:23:00.988Z,87
2022-10-02T09:24:01.071Z,87
2022-10-02T09:25:03.845Z,87
2022-10-02T09:26:01.279Z,87
2022-10-02T09:27:01.027Z,87
2022-10-02T09:28:01.170Z,87
2022-10-02T09:29:01.027Z,87
2022-10-02T09:30:05.554Z,87
2022-10-02T09:31:01.041Z,86
2022-10-02T09:32:01.211Z,86
2022-10-02T09:33:01.060Z,86
2022-10-02T09:34:01.142Z,86
2022-10-02T09:35:04.108Z,86
2022-10-02T09:36:01.140Z,87
2022-10-02T09:37:01.106Z,87
2022-10-02T09:38:01.149Z,86
2022-10-02T09:39:01.092Z,86
2022-10-02T09:40:05.564Z,86
2022-10-02T09:41:01.100Z,86
2022-10-02T09:42:01.183Z,86
2022-10-02T09:43:01.108Z,85
2022-10-02T09:44:01.200Z,85
2022-10-02T09:45:04.314Z,85
2022-10-02T09:46:01.286Z,85
2022-10-02T09:47:01.149Z,85
2022-10-02T09:48:01.225Z,85
2022-10-02T09:49:01.155Z,85
2022-10-02T09:50:04.478Z,85
2022-10-02T09:51:01.207Z,85
2022-10-02T09:52:01.364Z,85
2022-10-02T09:53:01.180Z,84
2022-10-02T09:54:00.825Z,84
2022-10-02T09:55:04.770Z,84
2022-10-02T09:56:00.303Z,84
2022-10-02T09:57:00.254Z,84
2022-10-02T09:58:00.348Z,84
2022-10-02T09:59:00.249Z,85
2022-10-02T10:00:03.604Z,85
2022-10-02T10:01:00.371Z,85
2022-10-02T10:02:00.395Z,85
2022-10-02T10:03:00.299Z,85
2022-10-02T10:04:00.397Z,85
2022-10-02T10:05:06.390Z,85
2022-10-02T10:06:00.826Z,85
2022-10-02T10:07:00.318Z,85
2022-10-02T10:08:00.372Z,85
2022-10-02T10:09:00.341Z,85
2022-10-02T10:10:03.457Z,85
2022-10-02T10:11:00.350Z,85
2022-10-02T10:12:00.414Z,85
2022-10-02T10:13:00.357Z,85
2022-10-02T10:14:00.851Z,85
2022-10-02T10:15:10.347Z,85
2022-10-02T10:16:00.490Z,85
2022-10-02T10:17:00.384Z,85
2022-10-02T10:18:00.456Z,85
2022-10-02T10:19:00.380Z,84
2022-10-02T10:20:03.788Z,84
2022-10-02T10:21:00.447Z,84
2022-10-02T10:22:00.493Z,85
2022-10-02T10:23:00.433Z,85
2022-10-02T10:24:00.505Z,85
2022-10-02T10:25:03.442Z,85
2022-10-02T10:26:00.511Z,85
2022-10-02T10:27:00.501Z,85
2022-10-02T10:28:00.888Z,85
2022-10-02T10:29:00.452Z,85
2022-10-02T10:30:03.819Z,85
2022-10-02T10:31:00.488Z,85
2022-10-02T10:32:00.896Z,85
2022-10-02T10:33:00.551Z,85
2022-10-02T10:34:00.554Z,85
2022-10-02T10:35:03.366Z,85
2022-10-02T10:36:00.838Z,85
2022-10-02T10:37:00.522Z,85
2022-10-02T10:38:00.598Z,85
2022-10-02T10:39:00.562Z,85
2022-10-02T10:40:03.758Z,85
2022-10-02T10:41:00.557Z,85
2022-10-02T10:42:00.633Z,85
2022-10-02T10:43:08.047Z,85
2022-10-02T10:44:00.831Z,85
2022-10-02T10:45:03.787Z,85
2022-10-02T10:46:00.782Z,85
2022-10-02T10:47:00.600Z,85
2022-10-02T10:48:00.667Z,85
2022-10-02T10:49:00.592Z,85
2022-10-02T10:50:04.519Z,85
2022-10-02T10:51:00.648Z,85
2022-10-02T10:52:00.713Z,85
2022-10-02T10:53:00.642Z,85
2022-10-02T10:54:02.092Z,85
2022-10-02T10:55:05.005Z,85
2022-10-02T10:56:00.918Z,85
2022-10-02T10:57:00.663Z,85
2022-10-02T10:58:00.843Z,85
2022-10-02T10:59:00.657Z,85
2022-10-02T11:00:03.813Z,85
2022-10-02T11:01:00.758Z,85
2022-10-02T11:02:00.866Z,85
2022-10-02T11:03:00.722Z,85
2022-10-02T11:04:00.797Z,85
2022-10-02T11:05:05.182Z,85
2022-10-02T11:06:00.837Z,85
2022-10-02T11:07:00.751Z,85
2022-10-02T11:08:00.868Z,85
2022-10-02T11:09:00.774Z,85
2022-10-02T11:10:04.010Z,85
2022-10-02T11:11:00.778Z,85
2022-10-02T11:12:00.855Z,85
2022-10-02T11:13:00.799Z,85
2022-10-02T11:14:00.906Z,84
2022-10-02T11:15:03.723Z,84
2022-10-02T11:16:00.939Z,84
2022-10-02T11:17:00.830Z,83
2022-10-02T11:18:00.933Z,83
2022-10-02T11:19:00.821Z,83
2022-10-02T11:20:04.353Z,83
2022-10-02T11:21:00.851Z,83
2022-10-02T11:22:00.907Z,83
2022-10-02T11:23:00.871Z,83
2022-10-02T11:24:00.942Z,82
2022-10-02T11:25:08.330Z,82
2022-10-02T11:26:00.978Z,82
2022-10-02T11:27:00.901Z,82
2022-10-02T11:28:01.022Z,82
2022-10-02T11:29:00.904Z,82
2022-10-02T11:30:05.403Z,82
2022-10-02T11:31:00.912Z,82
2022-10-02T11:32:01.109Z,81
2022-10-02T11:33:00.942Z,81
2022-10-02T11:34:01.028Z,81
2022-10-02T11:35:03.998Z,81
2022-10-02T11:36:01.021Z,81
2022-10-02T11:37:00.967Z,80
2022-10-02T11:38:03.984Z,80
2022-10-02T11:39:00.981Z,80
2022-10-02T11:40:04.202Z,79
2022-10-02T11:41:00.980Z,79
2022-10-02T11:42:01.065Z,79
2022-10-02T11:43:01.005Z,79
2022-10-02T11:44:01.107Z,79
2022-10-02T11:45:05.546Z,79
2022-10-02T11:46:01.211Z,79
2022-10-02T11:47:01.038Z,80
2022-10-02T11:48:01.110Z,80
2022-10-02T11:49:01.048Z,80
2022-10-02T11:50:04.258Z,79
2022-10-02T11:51:01.072Z,79
2022-10-02T11:52:01.153Z,79
2022-10-02T11:53:01.096Z,80
2022-10-02T11:54:01.160Z,80
2022-10-02T11:55:04.147Z,79
2022-10-02T11:56:01.228Z,79
2022-10-02T11:57:01.120Z,79
2022-10-02T11:58:01.180Z,79
2022-10-02T11:59:01.122Z,79
2022-10-02T12:00:04.616Z,79
2022-10-02T12:01:01.154Z,79
2022-10-02T12:02:01.434Z,79
2022-10-02T12:03:01.348Z,79
2022-10-02T12:04:01.249Z,79
2022-10-02T12:05:03.069Z,80
2022-10-02T12:06:00.934Z,80
2022-10-02T12:07:00.190Z,80
2022-10-02T12:08:00.292Z,81
2022-10-02T12:09:00.218Z,81
2022-10-02T12:10:04.605Z,80
2022-10-02T12:11:00.216Z,80
2022-10-02T12:12:00.304Z,80
2022-10-02T12:13:00.216Z,81
2022-10-02T12:14:00.885Z,81
2022-10-02T12:15:03.025Z,81
2022-10-02T12:16:00.302Z,81
2022-10-02T12:17:00.300Z,81
2022-10-02T12:18:00.333Z,80
2022-10-02T12:19:00.266Z,80
2022-10-02T12:20:03.631Z,80
2022-10-02T12:21:00.292Z,80
2022-10-02T12:22:00.386Z,80
2022-10-02T12:23:00.296Z,79
2022-10-02T12:24:00.861Z,79
2022-10-02T12:25:03.448Z,79
2022-10-02T12:26:00.426Z,79
2022-10-02T12:27:00.347Z,79
2022-10-02T12:28:00.453Z,79
2022-10-02T12:29:00.340Z,79
2022-10-02T12:30:04.656Z,78
2022-10-02T12:31:00.383Z,78
2022-10-02T12:32:00.495Z,77
2022-10-02T12:33:00.380Z,77
2022-10-02T12:34:00.447Z,77
2022-10-02T12:35:03.518Z,75
2022-10-02T12:36:00.485Z,75
2022-10-02T12:37:00.427Z,75
2022-10-02T12:38:00.923Z,75
2022-10-02T12:39:00.443Z,75
2022-10-02T12:40:04.018Z,74
2022-10-02T12:41:00.467Z,74
2022-10-02T12:42:00.553Z,75
2022-10-02T12:43:00.464Z,75
2022-10-02T12:44:00.568Z,75
2022-10-02T12:45:05.836Z,74
2022-10-02T12:46:00.635Z,74
2022-10-02T12:47:00.483Z,74
2022-10-02T12:48:00.571Z,73
2022-10-02T12:49:00.498Z,73
2022-10-02T12:50:03.836Z,72
2022-10-02T12:51:05.330Z,72
2022-10-02T12:52:00.904Z,72
2022-10-02T12:53:00.522Z,71
2022-10-02T12:54:00.641Z,71
2022-10-02T12:55:03.369Z,71
2022-10-02T12:56:00.658Z,72
2022-10-02T12:57:00.556Z,72
2022-10-02T12:58:00.627Z,72
2022-10-02T12:59:00.560Z,72
2022-10-02T13:00:03.831Z,72
2022-10-02T13:01:00.760Z,73
2022-10-02T13:02:00.922Z,73
2022-10-02T13:03:01.562Z,74
2022-10-02T13:04:00.667Z,74
2022-10-02T13:05:03.812Z,74
2022-10-02T13:06:00.867Z,73
2022-10-02T13:07:00.638Z,73
2022-10-02T13:08:00.716Z,73
2022-10-02T13:09:00.661Z,73
2022-10-02T13:10:07.433Z,73
2022-10-02T13:11:00.676Z,73
2022-10-02T13:12:00.753Z,73
2022-10-02T13:13:00.684Z,73
2022-10-02T13:14:00.799Z,71
2022-10-02T13:15:04.124Z,71
2022-10-02T13:16:00.793Z,70
2022-10-02T13:17:00.729Z,70
2022-10-02T13:18:00.795Z,70
2022-10-02T13:19:00.724Z,69
2022-10-02T13:20:04.290Z,69
2022-10-02T13:21:00.766Z,69
2022-10-02T13:22:00.814Z,71
2022-10-02T13:23:00.765Z,71
2022-10-02T13:24:00.831Z,72
2022-10-02T13:25:03.734Z,72
2022-10-02T13:26:00.911Z,72
2022-10-02T13:27:00.795Z,72
2022-10-02T13:28:00.948Z,72
2022-10-02T13:29:00.801Z,72
2022-10-02T13:30:04.346Z,72
2022-10-02T13:31:00.820Z,71
2022-10-02T13:32:00.991Z,71
2022-10-02T13:33:00.838Z,71
2022-10-02T13:34:00.938Z,72
2022-10-02T13:35:04.479Z,72
2022-10-02T13:36:00.934Z,72
2022-10-02T13:37:00.862Z,72
2022-10-02T13:38:00.980Z,72
2022-10-02T13:39:00.885Z,74
2022-10-02T13:40:04.044Z,74
2022-10-02T13:41:00.918Z,74
2022-10-02T13:42:01.010Z,73
2022-10-02T13:43:00.905Z,73
2022-10-02T13:44:01.019Z,74
2022-10-02T13:45:05.113Z,74
2022-10-02T13:46:01.024Z,74
2022-10-02T13:47:00.934Z,73
2022-10-02T13:48:01.000Z,73
2022-10-02T13:49:00.939Z,73
2022-10-02T13:50:04.348Z,73
2022-10-02T13:51:00.966Z,73
2022-10-02T13:52:01.031Z,73
2022-10-02T13:53:00.977Z,73
2022-10-02T13:54:01.043Z,73
2022-10-02T13:55:03.960Z,73
2022-10-02T13:56:01.085Z,73
2022-10-02T13:57:01.003Z,74
2022-10-02T13:58:01.973Z,74
2022-10-02T13:59:01.011Z,74
2022-10-02T14:00:11.389Z,74
2022-10-02T14:01:01.085Z,75
2022-10-02T14:02:01.181Z,75
2022-10-02T14:03:01.084Z,75
2022-10-02T14:04:01.162Z,73
2022-10-02T14:05:04.166Z,73
2022-10-02T14:06:01.163Z,73
2022-10-02T14:07:01.088Z,74
2022-10-02T14:08:01.176Z,74
2022-10-02T14:09:01.119Z,73
2022-10-02T14:10:04.591Z,73
2022-10-02T14:11:01.130Z,73
2022-10-02T14:12:01.195Z,73
2022-10-02T14:13:01.141Z,73
2022-10-02T14:14:03.392Z,74
2022-10-02T14:15:03.986Z,74